Time;durP1;ratioP1;P1;durP2;ratioP2;P2;SDS_P1;SDS_P2;PMS_P1;PMS_P2;Temp;Humidity;BMP_temperature;BMP_pressure;BME280_temperature;BME280_humidity;BME280_pressure;Samples;Min_cycle;Max_cycle;Signal;HPM_P1;HPM_P2
2021/04/02 00:00:19;;;;;;;12.05;4.60;;;5.30;92.70;;;;;;5014394;28;20032;-64
2021/04/02 00:02:45;;;;;;;8.02;3.22;;;5.30;92.80;;;;;;5014275;28;20022;-65
2021/04/02 00:05:17;;;;;;;10.85;3.85;;;5.20;92.80;;;;;;5013581;28;20034;-63
2021/04/02 00:07:43;;;;;;;10.73;3.95;;;5.20;92.80;;;;;;5014243;28;20038;-65
2021/04/02 00:10:21;;;;;;;12.20;4.00;;;5.20;92.70;;;;;;5013740;28;20032;-63
2021/04/02 00:12:47;;;;;;;16.40;8.30;;;5.20;92.80;;;;;;5013610;28;20469;-66
2021/04/02 00:15:19;;;;;;;9.27;3.80;;;5.20;92.80;;;;;;5014044;28;20045;-65
2021/04/02 00:17:45;;;;;;;11.55;3.92;;;5.10;92.80;;;;;;5013082;28;20033;-64
2021/04/02 00:20:13;;;;;;;15.00;4.53;;;5.00;92.90;;;;;;5014044;28;20026;-66
2021/04/02 00:22:39;;;;;;;11.48;4.00;;;4.90;93.00;;;;;;5013710;28;20033;-67
2021/04/02 00:25:05;;;;;;;10.32;4.10;;;4.90;93.20;;;;;;5013131;28;20030;-65
2021/04/02 00:27:31;;;;;;;12.43;4.45;;;4.90;93.30;;;;;;5013479;28;20378;-64
2021/04/02 00:29:56;;;;;;;10.98;4.00;;;4.80;93.30;;;;;;5012506;28;20021;-64
2021/04/02 00:32:22;;;;;;;12.88;4.13;;;4.80;93.40;;;;;;5013216;28;20069;-64
2021/04/02 00:34:47;;;;;;;12.82;3.92;;;4.70;93.40;;;;;;5013809;28;20044;-64
2021/04/02 00:37:13;;;;;;;8.95;6.38;;;4.70;93.40;;;;;;5013731;28;20092;-66
2021/04/02 00:39:39;;;;;;;10.15;3.78;;;4.70;93.50;;;;;;5012819;28;20088;-63
2021/04/02 00:42:05;;;;;;;12.43;4.90;;;4.60;93.60;;;;;;5013757;28;20021;-64
2021/04/02 00:44:31;;;;;;;87.57;68.32;;;4.60;93.70;;;;;;5013427;28;20026;-64
2021/04/02 00:46:56;;;;;;;17.23;5.80;;;4.60;93.70;;;;;;5012905;28;20388;-64
2021/04/02 00:49:22;;;;;;;11.10;3.85;;;4.50;93.70;;;;;;5013599;28;20165;-64
2021/04/02 00:51:47;;;;;;;12.23;7.53;;;4.50;93.70;;;;;;5013173;28;20030;-63
2021/04/02 00:54:13;;;;;;;9.32;3.75;;;4.50;93.80;;;;;;5012883;28;20430;-63
2021/04/02 00:56:39;;;;;;;34.05;21.98;;;4.40;94.00;;;;;;5013137;28;20022;-63
2021/04/02 00:59:05;;;;;;;8.85;3.92;;;4.40;93.90;;;;;;5013367;28;20026;-64
2021/04/02 01:01:31;;;;;;;10.00;4.72;;;4.30;93.90;;;;;;5012297;28;20385;-65
2021/04/02 01:03:57;;;;;;;10.18;4.32;;;4.30;94.00;;;;;;5013243;28;20116;-65
2021/04/02 01:06:26;;;;;;;13.48;4.70;;;4.30;94.00;;;;;;5013512;28;20462;-64
2021/04/02 01:08:52;;;;;;;9.10;3.72;;;4.20;94.10;;;;;;5013369;28;20022;-65
2021/04/02 01:11:20;;;;;;;13.55;4.63;;;4.20;94.10;;;;;;5013080;28;20038;-65
2021/04/02 01:13:56;;;;;;;10.43;5.70;;;4.20;94.10;;;;;;5012359;28;20172;-65
2021/04/02 01:16:25;;;;;;;18.92;6.68;;;4.20;94.00;;;;;;5013151;28;20071;-65
2021/04/02 01:18:52;;;;;;;11.13;3.63;;;4.10;94.10;;;;;;5013113;28;20383;-62
2021/04/02 01:21:36;;;;;;;10.50;3.78;;;4.10;94.10;;;;;;5012476;28;20022;-64
2021/04/02 01:24:01;;;;;;;14.82;4.20;;;4.10;94.20;;;;;;5012310;28;20025;-64
2021/04/02 01:26:32;;;;;;;12.65;4.07;;;4.10;94.20;;;;;;5003395;28;20029;-64
2021/04/02 01:29:25;;;;;;;12.13;7.57;;;4.10;94.10;;;;;;5004351;28;20029;-63
2021/04/02 01:31:58;;;;;;;12.98;3.63;;;4.10;94.20;;;;;;5001183;28;20545;-63
2021/04/02 01:34:29;;;;;;;18.90;8.20;;;4.00;94.20;;;;;;4998895;28;20117;-63
2021/04/02 01:37:00;;;;;;;28.80;23.30;;;4.00;94.20;;;;;;4998490;28;20033;-64
2021/04/02 01:39:25;;;;;;;46.50;35.05;;;4.00;94.40;;;;;;4998088;28;20045;-64
2021/04/02 01:41:54;;;;;;;9.68;4.30;;;4.00;94.30;;;;;;4998570;28;20022;-63
2021/04/02 01:44:21;;;;;;;12.63;3.80;;;4.00;94.30;;;;;;5012850;28;20505;-64
2021/04/02 01:46:48;;;;;;;9.05;3.00;;;4.00;94.30;;;;;;5012933;28;20022;-64
2021/04/02 01:49:14;;;;;;;11.07;3.88;;;4.00;94.30;;;;;;5012216;28;20034;-65
2021/04/02 01:51:42;;;;;;;9.82;4.22;;;4.00;94.40;;;;;;5015957;28;20033;-64
2021/04/02 01:54:09;;;;;;;11.00;6.28;;;4.00;94.40;;;;;;5025276;28;20473;-65
2021/04/02 01:56:36;;;;;;;9.98;3.85;;;4.00;94.30;;;;;;5031513;28;20366;-64
2021/04/02 01:59:03;;;;;;;13.55;6.97;;;4.00;94.30;;;;;;5013055;28;20520;-65
2021/04/02 02:01:34;;;;;;;12.88;3.50;;;4.00;94.30;;;;;;5012289;28;20030;-64
2021/04/02 02:04:01;;;;;;;6.80;3.55;;;4.00;94.30;;;;;;5012447;28;20077;-64
2021/04/02 02:06:27;;;;;;;14.20;9.07;;;4.00;94.30;;;;;;5012422;28;20490;-66
2021/04/02 02:08:53;;;;;;;9.38;3.47;;;4.00;94.30;;;;;;5012338;28;20022;-65
2021/04/02 02:11:20;;;;;;;10.15;4.25;;;4.00;94.30;;;;;;5001339;28;20019;-63
2021/04/02 02:13:54;;;;;;;14.75;11.02;;;4.10;94.30;;;;;;5005049;28;20120;-64
2021/04/02 02:16:22;;;;;;;9.68;2.78;;;4.10;94.30;;;;;;5018911;28;20022;-64
2021/04/02 02:18:54;;;;;;;9.80;3.03;;;4.10;94.20;;;;;;5021959;28;20034;-64
2021/04/02 02:21:21;;;;;;;17.58;9.75;;;4.20;94.20;;;;;;5012460;28;20025;-64
2021/04/02 02:23:48;;;;;;;10.35;3.00;;;4.20;94.10;;;;;;5011855;28;20026;-64
2021/04/02 02:26:15;;;;;;;6.38;2.40;;;4.20;94.10;;;;;;5012532;28;20029;-64
2021/04/02 02:28:41;;;;;;;9.63;4.85;;;4.20;94.10;;;;;;5012254;28;20034;-64
2021/04/02 02:31:07;;;;;;;78.30;47.40;;;4.20;94.30;;;;;;5011635;28;20751;-65
2021/04/02 02:33:33;;;;;;;6.97;2.97;;;4.20;94.40;;;;;;5012287;28;20033;-64
2021/04/02 02:36:02;;;;;;;14.70;3.47;;;4.20;94.10;;;;;;5014170;28;20022;-64
2021/04/02 02:38:28;;;;;;;6.80;3.10;;;4.20;94.10;;;;;;5015292;28;20026;-64
2021/04/02 02:40:54;;;;;;;9.73;2.95;;;4.30;94.10;;;;;;5015939;28;20097;-63
2021/04/02 02:43:20;;;;;;;7.80;3.03;;;4.30;94.00;;;;;;5015902;28;20070;-64
2021/04/02 02:45:46;;;;;;;17.25;5.43;;;4.30;94.00;;;;;;5014943;28;20471;-64
2021/04/02 02:48:12;;;;;;;10.85;6.05;;;4.30;94.10;;;;;;5014616;28;20026;-65
2021/04/02 02:50:42;;;;;;;12.50;7.28;;;4.30;94.10;;;;;;5013120;28;20030;-66
2021/04/02 02:53:09;;;;;;;6.75;3.25;;;4.20;94.10;;;;;;5011538;28;20033;-64
2021/04/02 02:55:39;;;;;;;12.07;5.00;;;4.20;94.10;;;;;;5014711;28;20029;-63
2021/04/02 02:58:05;;;;;;;7.57;3.15;;;4.20;94.10;;;;;;5015038;28;20478;-64
2021/04/02 03:00:35;;;;;;;12.45;9.23;;;4.20;94.20;;;;;;5014383;28;20034;-64
2021/04/02 03:03:04;;;;;;;7.43;2.70;;;4.20;94.20;;;;;;5015530;28;20426;-65
2021/04/02 03:05:30;;;;;;;10.32;5.57;;;4.30;94.20;;;;;;5015315;28;20037;-65
2021/04/02 03:08:03;;;;;;;9.25;2.97;;;4.30;94.20;;;;;;5014811;28;20022;-66
2021/04/02 03:10:31;;;;;;;8.57;2.75;;;4.30;94.30;;;;;;5015520;28;20022;-65
2021/04/02 03:12:58;;;;;;;6.95;3.80;;;4.30;94.30;;;;;;5002135;28;20042;-65
2021/04/02 03:15:25;;;;;;;7.35;2.80;;;4.30;94.30;;;;;;5006729;28;20025;-65
2021/04/02 03:17:57;;;;;;;13.63;7.40;;;4.30;94.40;;;;;;5005979;28;20383;-65
2021/04/02 03:20:23;;;;;;;15.15;10.20;;;4.30;94.40;;;;;;4994745;28;20129;-65
2021/04/02 03:22:51;;;;;;;12.13;3.03;;;4.30;94.60;;;;;;5000536;28;20023;-65
2021/04/02 03:25:19;;;;;;;7.55;3.50;;;4.30;94.70;;;;;;5015085;28;20055;-65
2021/04/02 03:27:46;;;;;;;8.70;4.32;;;4.30;94.80;;;;;;5013422;28;20466;-65
2021/04/02 03:30:13;;;;;;;14.80;3.65;;;4.30;95.00;;;;;;5014540;28;20212;-65
2021/04/02 03:32:41;;;;;;;12.82;3.83;;;4.30;95.00;;;;;;5014358;28;20041;-66
2021/04/02 03:35:10;;;;;;;9.93;6.07;;;4.30;95.10;;;;;;5014223;28;20368;-65
2021/04/02 03:37:37;;;;;;;14.13;4.82;;;4.40;95.20;;;;;;5014680;28;20026;-63
2021/04/02 03:40:12;;;;;;;10.80;5.05;;;4.40;95.30;;;;;;5014860;28;20029;-63
2021/04/02 03:42:39;;;;;;;11.65;5.05;;;4.40;95.20;;;;;;5013900;28;20057;-63
2021/04/02 03:45:09;;;;;;;10.35;4.95;;;4.40;95.30;;;;;;5014719;28;20022;-64
2021/04/02 03:48:01;;;;;;;11.18;3.70;;;4.40;95.40;;;;;;5012993;28;20030;-64
2021/04/02 03:50:32;;;;;;;10.23;4.45;;;4.40;95.40;;;;;;5012254;28;20052;-63
2021/04/02 03:53:10;;;;;;;13.70;6.47;;;4.30;95.40;;;;;;5014588;28;20041;-64
2021/04/02 03:55:39;;;;;;;11.05;4.82;;;4.40;95.60;;;;;;5013556;28;20018;-64
2021/04/02 03:58:05;;;;;;;15.98;8.00;;;4.40;95.60;;;;;;5014578;28;20021;-63
2021/04/02 04:00:42;;;;;;;18.23;12.05;;;4.40;95.70;;;;;;5014115;28;20393;-63
2021/04/02 04:03:08;;;;;;;17.17;5.82;;;4.50;95.70;;;;;;5013782;28;20512;-63
2021/04/02 04:05:35;;;;;;;19.95;5.53;;;4.50;95.70;;;;;;5014237;28;20053;-64
2021/04/02 04:08:02;;;;;;;18.35;8.52;;;4.50;95.60;;;;;;5014313;28;20034;-64
2021/04/02 04:10:28;;;;;;;18.75;7.18;;;4.60;95.60;;;;;;5013257;28;20014;-63
2021/04/02 04:12:57;;;;;;;12.27;5.63;;;4.50;95.60;;;;;;5014260;28;20053;-63
2021/04/02 04:15:26;;;;;;;14.35;10.80;;;4.50;95.60;;;;;;5014019;28;20103;-63
2021/04/02 04:17:53;;;;;;;25.48;19.92;;;4.50;95.70;;;;;;5013392;28;20025;-63
2021/04/02 04:20:20;;;;;;;12.10;5.10;;;4.50;95.80;;;;;;5014118;28;20026;-64
2021/04/02 04:22:48;;;;;;;15.70;9.30;;;4.50;95.80;;;;;;5013780;28;20426;-65
2021/04/02 04:25:18;;;;;;;15.10;11.15;;;4.50;95.80;;;;;;5013426;28;20064;-65
2021/04/02 04:27:44;;;;;;;16.35;8.25;;;4.50;95.80;;;;;;5013658;28;20058;-63
2021/04/02 04:30:12;;;;;;;15.80;7.57;;;4.50;95.80;;;;;;5013793;28;20018;-64
2021/04/02 04:32:40;;;;;;;13.02;9.25;;;4.50;95.70;;;;;;5013065;28;20033;-64
2021/04/02 04:35:14;;;;;;;34.75;9.13;;;4.50;95.70;;;;;;5013937;28;20022;-65
2021/04/02 04:37:41;;;;;;;30.85;24.67;;;4.50;95.70;;;;;;5012805;28;20034;-64
2021/04/02 04:40:08;;;;;;;23.65;16.25;;;4.40;95.70;;;;;;5013709;28;20053;-64
2021/04/02 04:42:35;;;;;;;14.02;6.85;;;4.40;95.70;;;;;;5013192;28;20156;-63
2021/04/02 04:45:02;;;;;;;21.10;15.68;;;4.40;95.70;;;;;;5013181;28;20026;-64
2021/04/02 04:47:28;;;;;;;15.55;10.13;;;4.40;95.60;;;;;;5012128;28;20477;-64
2021/04/02 04:49:53;;;;;;;10.15;5.10;;;4.40;95.60;;;;;;5013722;28;20025;-64
2021/04/02 04:52:21;;;;;;;15.63;9.18;;;4.40;95.60;;;;;;5012843;28;20391;-64
2021/04/02 04:54:52;;;;;;;15.55;11.85;;;4.40;95.60;;;;;;5012120;28;20076;-64
2021/04/02 04:57:19;;;;;;;9.45;5.43;;;4.30;95.60;;;;;;5013380;28;20064;-64
2021/04/02 04:59:49;;;;;;;22.50;11.18;;;4.30;95.60;;;;;;5011965;28;20040;-62
2021/04/02 05:02:16;;;;;;;10.60;4.35;;;4.40;95.70;;;;;;5013546;28;20026;-64
2021/04/02 05:04:43;;;;;;;21.80;4.68;;;4.30;95.60;;;;;;5012230;28;20430;-64
2021/04/02 05:07:10;;;;;;;15.48;4.13;;;4.30;95.70;;;;;;4998870;28;20022;-64
2021/04/02 05:09:38;;;;;;;12.98;5.28;;;4.30;95.70;;;;;;5001164;28;20017;-64
2021/04/02 05:12:06;;;;;;;18.58;6.20;;;4.30;95.70;;;;;;5002383;28;20038;-63
2021/04/02 05:14:34;;;;;;;10.68;3.95;;;4.30;95.60;;;;;;5004113;28;20049;-64
2021/04/02 05:17:00;;;;;;;37.30;20.67;;;4.20;95.60;;;;;;5003582;28;20026;-63
2021/04/02 05:19:26;;;;;;;12.35;5.13;;;4.20;95.60;;;;;;4992366;28;20378;-63
2021/04/02 05:21:51;;;;;;;12.88;4.97;;;4.20;95.60;;;;;;5005946;28;20018;-64
2021/04/02 05:24:17;;;;;;;18.75;4.25;;;4.20;95.60;;;;;;5012433;28;20088;-64
2021/04/02 05:26:42;;;;;;;13.98;4.18;;;4.20;95.50;;;;;;5011426;28;20029;-63
2021/04/02 05:29:08;;;;;;;16.40;13.38;;;4.20;95.50;;;;;;5012288;28;20022;-63
2021/04/02 05:31:34;;;;;;;8.38;4.57;;;4.20;95.50;;;;;;5011819;28;20382;-63
2021/04/02 05:34:00;;;;;;;9.02;3.83;;;4.20;95.50;;;;;;5011763;28;20537;-64
2021/04/02 05:36:26;;;;;;;9.95;4.15;;;4.20;95.50;;;;;;5004225;28;20029;-64
2021/04/02 05:38:51;;;;;;;11.10;3.92;;;4.20;95.50;;;;;;4997297;28;20022;-63
2021/04/02 05:41:27;;;;;;;20.55;13.73;;;4.20;95.50;;;;;;4997000;28;20033;-64
2021/04/02 05:44:00;;;;;;;10.95;4.38;;;4.20;95.40;;;;;;5004538;28;20037;-64
2021/04/02 05:46:26;;;;;;;20.23;9.50;;;4.20;95.40;;;;;;4993393;28;20027;-63
2021/04/02 05:49:00;;;;;;;22.58;10.25;;;4.20;95.40;;;;;;4997054;28;20054;-62
2021/04/02 05:51:27;;;;;;;11.60;4.40;;;4.20;95.40;;;;;;5011496;28;20028;-63
2021/04/02 05:53:57;;;;;;;24.92;11.18;;;4.20;95.30;;;;;;5011796;28;20413;-64
2021/04/02 05:56:24;;;;;;;11.18;5.07;;;4.20;95.30;;;;;;5011523;28;20022;-63
2021/04/02 05:58:51;;;;;;;17.30;7.03;;;4.30;95.30;;;;;;5011684;28;20050;-63
2021/04/02 06:01:17;;;;;;;21.98;13.07;;;4.30;95.20;;;;;;5011714;28;20459;-63
2021/04/02 06:03:43;;;;;;;12.70;3.75;;;4.30;95.20;;;;;;4993239;28;521103;-63
2021/04/02 06:06:12;;;;;;;23.27;15.30;;;4.30;95.20;;;;;;5012711;28;20119;-63
2021/04/02 06:08:44;;;;;;;15.48;4.18;;;4.30;95.10;;;;;;5000014;28;20471;-63
2021/04/02 06:11:10;;;;;;;19.10;8.40;;;4.40;95.10;;;;;;4997698;28;20026;-64
2021/04/02 06:13:36;;;;;;;13.98;3.45;;;4.40;95.10;;;;;;4997399;28;20350;-64
2021/04/02 06:16:02;;;;;;;8.70;2.95;;;4.40;94.90;;;;;;4996034;28;20053;-64
2021/04/02 06:18:28;;;;;;;25.40;15.63;;;4.50;95.00;;;;;;4997464;28;20038;-64
2021/04/02 06:20:55;;;;;;;13.40;4.00;;;4.50;94.80;;;;;;5005756;28;20025;-66
2021/04/02 06:23:22;;;;;;;17.95;4.32;;;4.50;94.80;;;;;;4997961;28;20096;-66
2021/04/02 06:26:03;;;;;;;13.77;3.40;;;4.50;94.70;;;;;;5000674;28;20018;-66
2021/04/02 06:28:33;;;;;;;10.18;3.47;;;4.60;94.60;;;;;;5015948;28;20037;-65
2021/04/02 06:31:00;;;;;;;12.40;7.85;;;4.60;94.40;;;;;;5015335;28;20022;-65
2021/04/02 06:33:32;;;;;;;9.50;3.42;;;4.60;94.30;;;;;;5012037;28;20354;-64
2021/04/02 06:35:58;;;;;;;13.25;6.28;;;4.70;94.30;;;;;;4997143;28;20057;-65
2021/04/02 06:38:30;;;;;;;19.85;16.05;;;4.70;94.30;;;;;;4995619;28;20026;-64
2021/04/02 06:41:00;;;;;;;14.45;3.67;;;4.80;94.10;;;;;;4996244;28;20103;-64
2021/04/02 06:43:41;;;;;;;14.55;4.85;;;4.80;94.10;;;;;;4996074;28;20023;-64
2021/04/02 06:46:08;;;;;;;8.45;2.88;;;4.90;93.90;;;;;;4996368;28;20459;-64
2021/04/02 06:48:34;;;;;;;25.10;14.93;;;5.00;94.20;;;;;;5002455;28;20096;-65
2021/04/02 06:51:00;;;;;;;7.95;3.03;;;5.10;94.20;;;;;;5015225;28;20480;-64
2021/04/02 06:53:27;;;;;;;22.20;13.73;;;5.10;94.00;;;;;;5015513;28;20388;-64
2021/04/02 06:55:54;;;;;;;15.30;7.78;;;5.20;93.30;;;;;;4998756;28;20027;-63
2021/04/02 06:58:22;;;;;;;23.63;17.10;;;5.30;93.10;;;;;;4995526;28;20034;-64
2021/04/02 07:00:50;;;;;;;21.85;7.63;;;5.30;92.90;;;;;;4995567;28;20105;-63
2021/04/02 07:03:18;;;;;;;20.13;7.82;;;5.30;92.70;;;;;;4995808;28;20069;-64
2021/04/02 07:05:44;;;;;;;34.15;20.15;;;5.40;92.60;;;;;;4994939;28;20076;-64
2021/04/02 07:08:17;;;;;;;16.17;3.33;;;5.50;92.60;;;;;;5005512;28;20467;-66
2021/04/02 07:10:45;;;;;;;10.43;7.25;;;5.50;92.40;;;;;;5015040;28;20105;-64
2021/04/02 07:13:12;;;;;;;10.75;2.95;;;5.60;92.50;;;;;;5014634;28;20046;-64
2021/04/02 07:15:39;;;;;;;24.42;9.43;;;5.70;92.50;;;;;;5013597;28;20466;-66
2021/04/02 07:18:07;;;;;;;23.88;14.45;;;5.80;92.30;;;;;;5015369;28;20034;-65
2021/04/02 07:20:33;;;;;;;13.05;3.33;;;5.80;92.00;;;;;;5012220;28;20100;-66
2021/04/02 07:23:00;;;;;;;7.85;3.00;;;5.80;91.80;;;;;;5013436;28;20478;-64
2021/04/02 07:25:26;;;;;;;13.52;3.20;;;5.90;91.30;;;;;;5014781;28;20378;-64
2021/04/02 07:27:51;;;;;;;10.75;2.92;;;5.90;90.90;;;;;;5013951;28;20473;-65
2021/04/02 07:30:20;;;;;;;15.32;2.75;;;6.00;90.90;;;;;;5011606;28;20038;-63
2021/04/02 07:32:48;;;;;;;13.20;8.57;;;6.00;90.80;;;;;;5006701;28;20172;-64
2021/04/02 07:35:21;;;;;;;9.13;2.10;;;6.20;90.90;;;;;;5008898;28;20052;-62
2021/04/02 07:37:52;;;;;;;8.98;2.80;;;6.30;90.00;;;;;;5011182;28;20022;-63
2021/04/02 07:40:22;;;;;;;26.65;17.75;;;6.40;89.10;;;;;;4993058;28;20383;-64
2021/04/02 07:42:49;;;;;;;10.23;2.38;;;6.40;88.00;;;;;;4992223;28;20062;-63
2021/04/02 07:45:20;;;;;;;11.18;2.00;;;6.40;88.40;;;;;;4994661;28;20033;-63
2021/04/02 07:47:54;;;;;;;11.57;2.45;;;6.40;87.70;;;;;;4993284;28;20033;-63
2021/04/02 07:50:47;;;;;;;11.00;2.40;;;6.50;87.90;;;;;;5000226;28;20037;-63
2021/04/02 07:53:17;;;;;;;14.75;7.13;;;6.70;87.40;;;;;;5013267;28;20042;-64
2021/04/02 07:55:48;;;;;;;10.73;2.97;;;6.80;87.70;;;;;;5013202;28;20477;-62
2021/04/02 07:58:22;;;;;;;10.30;2.65;;;7.00;86.70;;;;;;5013059;28;20090;-67
2021/04/02 08:00:52;;;;;;;6.38;1.90;;;7.20;85.80;;;;;;5013403;28;20505;-66
2021/04/02 08:03:18;;;;;;;10.85;2.60;;;7.40;84.30;;;;;;5013134;28;20085;-68
2021/04/02 08:06:08;;;;;;;8.52;2.03;;;7.70;82.60;;;;;;5001246;28;20528;-67
2021/04/02 08:08:45;;;;;;;12.32;2.53;;;7.90;82.80;;;;;;5012912;28;20034;-71
2021/04/02 08:11:16;;;;;;;10.68;2.00;;;8.10;80.60;;;;;;5013145;28;20036;-65
2021/04/02 08:14:06;;;;;;;8.68;2.20;;;8.30;80.30;;;;;;5013178;28;20083;-70
2021/04/02 08:16:31;;;;;;;6.75;2.28;;;8.60;80.30;;;;;;5011395;28;20390;-70
2021/04/02 08:19:29;;;;;;;9.30;2.40;;;8.90;78.10;;;;;;5012325;28;20034;-71
2021/04/02 08:22:02;;;;;;;12.15;2.47;;;9.00;76.70;;;;;;5011967;28;20053;-69
2021/04/02 08:24:30;;;;;;;10.68;4.40;;;9.00;75.50;;;;;;5001507;28;20033;-70
2021/04/02 08:26:56;;;;;;;14.07;2.70;;;8.90;75.60;;;;;;4997773;28;20014;-69
2021/04/02 08:29:23;;;;;;;9.45;3.15;;;8.90;75.70;;;;;;5007697;28;20030;-66
2021/04/02 08:31:53;;;;;;;8.43;2.63;;;8.80;74.50;;;;;;5004228;28;20030;-65
2021/04/02 08:34:25;;;;;;;11.43;2.85;;;8.70;74.40;;;;;;5013421;28;20030;-66
2021/04/02 08:36:52;;;;;;;14.18;3.03;;;8.70;74.60;;;;;;5011191;28;20022;-66
2021/04/02 08:39:23;;;;;;;12.35;3.53;;;8.70;74.90;;;;;;5013467;28;20037;-67
2021/04/02 08:41:48;;;;;;;7.75;2.72;;;8.90;74.60;;;;;;4996619;28;20105;-64
2021/04/02 08:44:15;;;;;;;6.32;2.90;;;9.00;73.50;;;;;;5006685;28;20117;-65
2021/04/02 08:46:46;;;;;;;6.53;2.47;;;9.00;74.40;;;;;;5010011;28;20525;-65
2021/04/02 08:49:14;;;;;;;8.85;4.43;;;9.10;74.00;;;;;;5009461;28;20030;-66
2021/04/02 08:51:47;;;;;;;9.57;3.10;;;9.20;72.60;;;;;;5010122;28;20430;-63
2021/04/02 08:54:16;;;;;;;11.98;3.13;;;9.20;71.40;;;;;;5005815;28;20439;-65
2021/04/02 08:56:41;;;;;;;8.15;3.75;;;9.10;72.50;;;;;;4996137;28;20475;-64
2021/04/02 08:59:09;;;;;;;14.98;3.25;;;9.20;72.60;;;;;;4997358;28;20032;-65
2021/04/02 09:01:41;;;;;;;10.65;2.92;;;9.20;71.00;;;;;;4991473;28;20025;-64
2021/04/02 09:04:07;;;;;;;12.02;3.35;;;9.10;71.20;;;;;;4999861;28;20042;-64
2021/04/02 09:06:33;;;;;;;10.07;3.42;;;9.10;71.00;;;;;;5005883;28;20022;-65
2021/04/02 09:09:01;;;;;;;15.82;3.03;;;9.00;70.70;;;;;;5012891;28;20080;-63
2021/04/02 09:11:26;;;;;;;9.65;3.53;;;9.00;70.80;;;;;;5009488;28;20053;-63
2021/04/02 09:13:52;;;;;;;6.00;2.45;;;8.90;71.60;;;;;;4994848;28;20026;-64
2021/04/02 09:16:20;;;;;;;7.25;2.83;;;8.90;72.70;;;;;;5000302;28;20037;-64
2021/04/02 09:18:53;;;;;;;11.23;3.00;;;8.90;72.70;;;;;;4992109;28;20483;-63
2021/04/02 09:21:20;;;;;;;11.00;3.10;;;8.90;71.90;;;;;;4990116;28;20030;-62
2021/04/02 09:23:48;;;;;;;8.93;3.33;;;8.80;72.00;;;;;;5001898;28;20490;-62
2021/04/02 09:26:13;;;;;;;8.77;2.97;;;8.70;72.50;;;;;;5008004;28;20057;-64
2021/04/02 09:28:39;;;;;;;10.43;3.88;;;8.80;72.80;;;;;;4989729;28;20119;-64
2021/04/02 09:31:18;;;;;;;7.53;3.03;;;8.90;72.70;;;;;;5004262;28;20038;-64
2021/04/02 09:33:46;;;;;;;13.93;3.47;;;8.90;72.00;;;;;;4989037;28;20038;-64
2021/04/02 09:36:13;;;;;;;7.75;4.10;;;9.00;72.40;;;;;;5008990;28;20022;-64
2021/04/02 09:38:39;;;;;;;8.82;4.15;;;9.10;72.50;;;;;;5008583;28;20026;-64
2021/04/02 09:41:05;;;;;;;13.68;4.35;;;9.20;70.70;;;;;;5008384;28;20505;-64
2021/04/02 09:43:48;;;;;;;11.77;4.53;;;9.10;71.30;;;;;;5008767;28;20041;-64
2021/04/02 09:46:25;;;;;;;10.30;4.40;;;9.20;70.40;;;;;;5012669;28;20132;-64
2021/04/02 09:48:51;;;;;;;10.07;4.28;;;9.30;70.20;;;;;;5008566;28;20086;-63
2021/04/02 09:51:16;;;;;;;13.32;5.75;;;9.30;70.00;;;;;;4994126;28;20070;-64
2021/04/02 09:53:42;;;;;;;12.75;4.97;;;9.30;69.50;;;;;;4993118;28;20042;-63
2021/04/02 09:56:07;;;;;;;13.40;4.60;;;9.30;68.40;;;;;;4993617;28;20089;-64
2021/04/02 09:58:33;;;;;;;12.60;4.20;;;9.10;69.40;;;;;;4993145;28;20038;-64
2021/04/02 10:00:58;;;;;;;9.60;4.15;;;9.20;69.70;;;;;;4992860;28;20031;-64
2021/04/02 10:03:26;;;;;;;9.05;4.05;;;9.20;68.70;;;;;;4992561;28;20683;-65
2021/04/02 10:05:52;;;;;;;12.88;5.43;;;9.20;68.80;;;;;;4993010;28;20053;-65
2021/04/02 10:08:17;;;;;;;15.02;4.63;;;9.20;68.80;;;;;;4992668;28;20062;-64
2021/04/02 10:10:43;;;;;;;10.82;4.45;;;9.20;69.30;;;;;;5010401;28;20030;-64
2021/04/02 10:13:08;;;;;;;12.88;5.93;;;9.20;69.10;;;;;;5011931;28;20052;-64
2021/04/02 10:15:34;;;;;;;11.50;3.60;;;9.30;68.60;;;;;;4993848;28;20078;-65
2021/04/02 10:18:00;;;;;;;9.77;3.45;;;9.40;68.80;;;;;;4992954;28;20499;-65
2021/04/02 10:20:25;;;;;;;9.98;3.00;;;9.50;68.80;;;;;;4993338;28;20061;-64
2021/04/02 10:22:51;;;;;;;7.80;2.47;;;9.60;67.50;;;;;;4992125;28;20100;-65
2021/04/02 10:25:16;;;;;;;10.15;2.60;;;9.50;66.70;;;;;;4992318;28;20031;-64
2021/04/02 10:27:42;;;;;;;11.38;3.10;;;9.50;66.30;;;;;;4993521;28;20037;-65
2021/04/02 10:30:08;;;;;;;8.93;2.88;;;9.60;66.10;;;;;;4992303;28;20471;-64
2021/04/02 10:32:34;;;;;;;9.20;2.83;;;9.60;66.40;;;;;;4992013;28;20113;-63
2021/04/02 10:35:00;;;;;;;9.57;2.70;;;9.80;65.90;;;;;;4992534;28;20117;-65
2021/04/02 10:37:26;;;;;;;12.57;3.00;;;9.90;65.80;;;;;;4991460;28;20109;-65
2021/04/02 10:39:51;;;;;;;6.20;3.10;;;9.90;64.80;;;;;;4994937;28;20026;-65
2021/04/02 10:42:17;;;;;;;11.23;2.70;;;10.00;65.40;;;;;;4996236;28;21575;-66
2021/04/02 10:44:44;;;;;;;5.68;2.40;;;10.10;65.60;;;;;;4994510;28;20026;-66
2021/04/02 10:47:10;;;;;;;8.40;2.65;;;10.10;65.00;;;;;;4994942;28;20026;-65
2021/04/02 10:49:36;;;;;;;9.55;2.80;;;10.20;65.90;;;;;;5005895;28;20026;-64
2021/04/02 10:52:02;;;;;;;11.88;2.42;;;10.40;64.90;;;;;;5013169;28;20042;-63
2021/04/02 10:54:27;;;;;;;7.32;2.38;;;10.50;64.30;;;;;;5013853;28;20045;-64
2021/04/02 10:56:53;;;;;;;15.55;2.40;;;10.40;64.70;;;;;;5013447;28;20026;-64
2021/04/02 10:59:18;;;;;;;11.63;3.80;;;10.50;64.90;;;;;;5014404;28;20033;-64
2021/04/02 11:01:44;;;;;;;9.90;2.72;;;10.50;63.90;;;;;;5014590;28;20022;-68
2021/04/02 11:04:09;;;;;;;7.90;2.50;;;10.50;65.00;;;;;;5008113;28;20053;-64
2021/04/02 11:06:35;;;;;;;6.20;2.28;;;10.40;64.60;;;;;;4994360;28;20034;-63
2021/04/02 11:09:01;;;;;;;9.40;2.65;;;10.40;63.90;;;;;;4995367;28;20018;-62
2021/04/02 11:11:26;;;;;;;7.88;2.28;;;10.40;63.00;;;;;;4994168;28;20029;-66
2021/04/02 11:13:52;;;;;;;9.88;2.75;;;10.50;63.50;;;;;;4995280;28;20479;-65
2021/04/02 11:16:17;;;;;;;7.85;2.17;;;10.60;64.60;;;;;;4994878;28;20022;-64
2021/04/02 11:18:45;;;;;;;10.88;2.70;;;10.70;65.00;;;;;;4994123;28;20023;-63
2021/04/02 11:21:12;;;;;;;9.50;2.33;;;10.90;64.90;;;;;;4994941;28;20046;-64
2021/04/02 11:23:38;;;;;;;9.98;2.30;;;11.10;64.90;;;;;;4994638;28;20030;-64
2021/04/02 11:26:03;;;;;;;9.18;1.88;;;11.10;63.40;;;;;;5000095;28;20064;-64
2021/04/02 11:28:29;;;;;;;9.48;1.98;;;11.20;64.70;;;;;;5001558;28;20038;-63
2021/04/02 11:30:55;;;;;;;11.10;2.58;;;11.30;62.10;;;;;;5011900;28;20025;-63
2021/04/02 11:33:20;;;;;;;10.02;2.65;;;11.20;61.50;;;;;;5012852;28;20053;-63
2021/04/02 11:35:47;;;;;;;11.38;2.35;;;11.20;61.90;;;;;;5006172;28;20107;-64
2021/04/02 11:38:13;;;;;;;6.00;1.92;;;11.20;61.60;;;;;;4999485;28;20475;-63
2021/04/02 11:40:38;;;;;;;7.00;2.72;;;11.30;61.70;;;;;;5010686;28;20022;-64
2021/04/02 11:43:04;;;;;;;6.45;2.10;;;11.30;61.60;;;;;;5006417;28;20058;-64
2021/04/02 11:45:30;;;;;;;8.10;1.92;;;11.40;62.30;;;;;;4993936;28;20010;-67
2021/04/02 11:47:55;;;;;;;9.80;2.25;;;11.60;60.30;;;;;;4992192;28;20029;-68
2021/04/02 11:50:21;;;;;;;7.78;2.83;;;11.50;59.70;;;;;;4994472;28;20030;-65
2021/04/02 11:52:47;;;;;;;7.35;2.40;;;11.50;60.80;;;;;;4994077;28;20046;-69
2021/04/02 11:55:13;;;;;;;12.52;2.15;;;11.40;62.70;;;;;;5000863;28;20010;-67
2021/04/02 11:57:38;;;;;;;11.27;2.38;;;11.40;60.90;;;;;;4998892;28;20069;-66
2021/04/02 12:00:11;;;;;;;9.95;2.55;;;11.40;59.90;;;;;;4994347;28;20054;-66
2021/04/02 12:02:37;;;;;;;5.75;2.30;;;11.40;59.90;;;;;;4994164;28;20037;-66
2021/04/02 12:05:04;;;;;;;6.22;2.25;;;11.40;59.80;;;;;;4993922;28;20450;-66
2021/04/02 12:07:30;;;;;;;12.43;2.50;;;11.50;60.30;;;;;;4994789;28;20045;-67
2021/04/02 12:09:55;;;;;;;12.43;2.70;;;11.50;60.20;;;;;;4994105;28;20022;-65
2021/04/02 12:12:21;;;;;;;11.88;2.53;;;11.40;60.00;;;;;;4995122;28;20050;-65
2021/04/02 12:14:46;;;;;;;12.63;2.95;;;11.30;61.20;;;;;;4992664;28;20030;-66
2021/04/02 12:17:12;;;;;;;10.73;2.72;;;11.20;61.10;;;;;;5009891;28;20117;-65
2021/04/02 12:19:38;;;;;;;11.15;3.35;;;11.20;61.60;;;;;;5013351;28;20025;-66
2021/04/02 12:22:03;;;;;;;10.05;2.97;;;11.30;61.70;;;;;;5012554;28;20510;-66
2021/04/02 12:24:29;;;;;;;12.75;3.13;;;11.30;62.10;;;;;;5013173;28;20106;-66
2021/04/02 12:26:55;;;;;;;8.35;2.78;;;11.20;62.40;;;;;;5008499;28;20031;-66
2021/04/02 12:29:21;;;;;;;8.85;2.70;;;11.20;62.40;;;;;;5010827;28;20036;-66
2021/04/02 12:31:46;;;;;;;12.18;2.33;;;11.20;62.00;;;;;;5010746;28;20034;-66
2021/04/02 12:34:12;;;;;;;13.65;3.00;;;11.10;62.10;;;;;;5011423;28;20149;-66
2021/04/02 12:36:37;;;;;;;8.73;2.58;;;11.00;62.30;;;;;;5012352;28;20022;-64
2021/04/02 12:39:04;;;;;;;11.95;2.40;;;11.00;62.70;;;;;;5009029;28;20030;-71
2021/04/02 12:41:30;;;;;;;5.55;2.00;;;11.00;62.00;;;;;;4992894;28;20022;-68
2021/04/02 12:43:55;;;;;;;11.10;2.25;;;11.00;61.80;;;;;;4991572;28;20407;-70
2021/04/02 12:46:21;;;;;;;5.82;1.98;;;10.90;61.90;;;;;;4993201;28;20378;-65
2021/04/02 12:48:47;;;;;;;12.63;2.78;;;11.00;62.20;;;;;;5010957;28;20022;-64
2021/04/02 12:51:15;;;;;;;9.73;2.42;;;11.00;61.70;;;;;;5009994;28;20033;-68